sensor_id;sensor_type;location;lat;lon;timestamp;temperature;humidity
67641;SHT31;54434;50.096;20.082;2023-04-15T00:01:08;10.66;75.18
67641;SHT31;54434;50.096;20.082;2023-04-15T00:03:51;10.62;75.20
67641;SHT31;54434;50.096;20.082;2023-04-15T00:06:29;10.58;75.19
67641;SHT31;54434;50.096;20.082;2023-04-15T00:09:05;10.54;75.32
67641;SHT31;54434;50.096;20.082;2023-04-15T00:11:42;10.50;75.50
67641;SHT31;54434;50.096;20.082;2023-04-15T00:14:19;10.46;75.51
67641;SHT31;54434;50.096;20.082;2023-04-15T00:16:56;10.42;75.36
67641;SHT31;54434;50.096;20.082;2023-04-15T00:19:34;10.38;75.24
67641;SHT31;54434;50.096;20.082;2023-04-15T00:22:11;10.33;75.08
67641;SHT31;54434;50.096;20.082;2023-04-15T00:24:47;10.28;74.72
67641;SHT31;54434;50.096;20.082;2023-04-15T00:27:24;10.24;73.99
67641;SHT31;54434;50.096;20.082;2023-04-15T00:30:01;10.26;72.22
67641;SHT31;54434;50.096;20.082;2023-04-15T00:32:39;10.29;72.10
67641;SHT31;54434;50.096;20.082;2023-04-15T00:35:15;10.28;71.92
67641;SHT31;54434;50.096;20.082;2023-04-15T00:37:54;10.26;71.95
67641;SHT31;54434;50.096;20.082;2023-04-15T00:40:30;10.24;72.70
67641;SHT31;54434;50.096;20.082;2023-04-15T00:43:08;10.20;73.08
67641;SHT31;54434;50.096;20.082;2023-04-15T00:45:44;10.19;73.28
67641;SHT31;54434;50.096;20.082;2023-04-15T00:48:22;10.15;73.46
67641;SHT31;54434;50.096;20.082;2023-04-15T00:50:59;10.13;73.50
67641;SHT31;54434;50.096;20.082;2023-04-15T00:53:36;10.09;73.55
67641;SHT31;54434;50.096;20.082;2023-04-15T00:56:12;10.06;73.71
67641;SHT31;54434;50.096;20.082;2023-04-15T00:58:51;9.99;74.00
67641;SHT31;54434;50.096;20.082;2023-04-15T01:01:28;9.90;74.22
67641;SHT31;54434;50.096;20.082;2023-04-15T01:04:06;9.84;74.36
67641;SHT31;54434;50.096;20.082;2023-04-15T01:06:44;9.81;74.48
67641;SHT31;54434;50.096;20.082;2023-04-15T01:09:20;9.78;74.50
67641;SHT31;54434;50.096;20.082;2023-04-15T01:11:56;9.76;74.50
67641;SHT31;54434;50.096;20.082;2023-04-15T01:14:33;9.74;74.35
67641;SHT31;54434;50.096;20.082;2023-04-15T01:17:10;9.72;74.32
67641;SHT31;54434;50.096;20.082;2023-04-15T01:19:46;9.71;74.23
67641;SHT31;54434;50.096;20.082;2023-04-15T01:22:23;9.69;74.29
67641;SHT31;54434;50.096;20.082;2023-04-15T01:25:05;9.69;74.33
67641;SHT31;54434;50.096;20.082;2023-04-15T01:27:49;9.67;74.21
67641;SHT31;54434;50.096;20.082;2023-04-15T01:30:25;9.64;74.20
67641;SHT31;54434;50.096;20.082;2023-04-15T01:33:05;9.62;74.26
67641;SHT31;54434;50.096;20.082;2023-04-15T01:35:42;9.61;74.21
67641;SHT31;54434;50.096;20.082;2023-04-15T01:38:19;9.59;74.31
67641;SHT31;54434;50.096;20.082;2023-04-15T01:40:56;9.58;74.37
67641;SHT31;54434;50.096;20.082;2023-04-15T01:43:32;9.57;74.28
67641;SHT31;54434;50.096;20.082;2023-04-15T01:46:09;9.54;74.19
67641;SHT31;54434;50.096;20.082;2023-04-15T01:48:45;9.52;74.15
67641;SHT31;54434;50.096;20.082;2023-04-15T01:51:22;9.50;74.18
67641;SHT31;54434;50.096;20.082;2023-04-15T01:53:59;9.48;74.19
67641;SHT31;54434;50.096;20.082;2023-04-15T01:56:35;9.48;74.22
67641;SHT31;54434;50.096;20.082;2023-04-15T01:59:16;9.46;74.15
67641;SHT31;54434;50.096;20.082;2023-04-15T02:01:53;9.44;74.24
67641;SHT31;54434;50.096;20.082;2023-04-15T02:04:31;9.43;74.23
67641;SHT31;54434;50.096;20.082;2023-04-15T02:07:08;9.42;74.20
67641;SHT31;54434;50.096;20.082;2023-04-15T02:09:45;9.41;74.20
67641;SHT31;54434;50.096;20.082;2023-04-15T02:12:21;9.39;74.11
67641;SHT31;54434;50.096;20.082;2023-04-15T02:14:57;9.35;74.09
67641;SHT31;54434;50.096;20.082;2023-04-15T02:17:36;9.33;74.10
67641;SHT31;54434;50.096;20.082;2023-04-15T02:20:18;9.31;74.11
67641;SHT31;54434;50.096;20.082;2023-04-15T02:22:55;9.26;74.01
67641;SHT31;54434;50.096;20.082;2023-04-15T02:25:32;9.24;73.90
67641;SHT31;54434;50.096;20.082;2023-04-15T02:28:09;9.22;73.84
67641;SHT31;54434;50.096;20.082;2023-04-15T02:30:49;9.19;73.80
67641;SHT31;54434;50.096;20.082;2023-04-15T02:33:28;9.17;73.81
67641;SHT31;54434;50.096;20.082;2023-04-15T02:36:05;9.12;73.76
67641;SHT31;54434;50.096;20.082;2023-04-15T02:38:43;9.09;73.84
67641;SHT31;54434;50.096;20.082;2023-04-15T02:41:19;9.05;73.90
67641;SHT31;54434;50.096;20.082;2023-04-15T02:43:59;9.03;73.90
67641;SHT31;54434;50.096;20.082;2023-04-15T02:46:35;9.01;73.98
67641;SHT31;54434;50.096;20.082;2023-04-15T02:49:12;8.95;74.10
67641;SHT31;54434;50.096;20.082;2023-04-15T02:51:49;8.89;74.25
67641;SHT31;54434;50.096;20.082;2023-04-15T02:54:26;8.85;74.39
67641;SHT31;54434;50.096;20.082;2023-04-15T02:57:05;8.81;74.40
67641;SHT31;54434;50.096;20.082;2023-04-15T02:59:42;8.76;74.49
67641;SHT31;54434;50.096;20.082;2023-04-15T03:02:19;8.73;74.51
67641;SHT31;54434;50.096;20.082;2023-04-15T03:04:57;8.70;74.54
67641;SHT31;54434;50.096;20.082;2023-04-15T03:07:33;8.66;74.69
67641;SHT31;54434;50.096;20.082;2023-04-15T03:10:11;8.62;74.76
67641;SHT31;54434;50.096;20.082;2023-04-15T03:12:47;8.59;74.71
67641;SHT31;54434;50.096;20.082;2023-04-15T03:15:25;8.55;74.71
67641;SHT31;54434;50.096;20.082;2023-04-15T03:18:04;8.51;74.72
67641;SHT31;54434;50.096;20.082;2023-04-15T03:20:42;8.45;74.93
67641;SHT31;54434;50.096;20.082;2023-04-15T03:23:19;8.40;75.07
67641;SHT31;54434;50.096;20.082;2023-04-15T03:25:56;8.33;75.14
67641;SHT31;54434;50.096;20.082;2023-04-15T03:28:37;8.25;75.43
67641;SHT31;54434;50.096;20.082;2023-04-15T03:31:14;8.20;75.61
67641;SHT31;54434;50.096;20.082;2023-04-15T03:33:50;8.16;75.73
67641;SHT31;54434;50.096;20.082;2023-04-15T03:36:27;8.15;75.79
67641;SHT31;54434;50.096;20.082;2023-04-15T03:39:04;8.15;75.80
67641;SHT31;54434;50.096;20.082;2023-04-15T03:41:41;8.09;75.87
67641;SHT31;54434;50.096;20.082;2023-04-15T03:44:17;8.04;76.00
67641;SHT31;54434;50.096;20.082;2023-04-15T03:46:54;8.02;76.08
67641;SHT31;54434;50.096;20.082;2023-04-15T03:49:30;7.97;76.21
67641;SHT31;54434;50.096;20.082;2023-04-15T03:52:07;7.90;76.38
67641;SHT31;54434;50.096;20.082;2023-04-15T03:54:43;7.88;76.43
67641;SHT31;54434;50.096;20.082;2023-04-15T03:57:20;7.85;76.58
67641;SHT31;54434;50.096;20.082;2023-04-15T03:59:57;7.84;76.70
67641;SHT31;54434;50.096;20.082;2023-04-15T04:02:42;7.83;76.75
67641;SHT31;54434;50.096;20.082;2023-04-15T04:05:22;7.82;76.80
67641;SHT31;54434;50.096;20.082;2023-04-15T04:08:00;7.82;76.80
67641;SHT31;54434;50.096;20.082;2023-04-15T04:10:37;7.82;76.77
67641;SHT31;54434;50.096;20.082;2023-04-15T04:13:13;7.83;76.80
67641;SHT31;54434;50.096;20.082;2023-04-15T04:15:49;7.82;76.92
67641;SHT31;54434;50.096;20.082;2023-04-15T04:18:26;7.82;77.10
67641;SHT31;54434;50.096;20.082;2023-04-15T04:21:02;7.79;77.25
67641;SHT31;54434;50.096;20.082;2023-04-15T04:23:39;7.78;77.35
67641;SHT31;54434;50.096;20.082;2023-04-15T04:26:15;7.80;77.36
67641;SHT31;54434;50.096;20.082;2023-04-15T04:28:53;7.83;77.21
67641;SHT31;54434;50.096;20.082;2023-04-15T04:31:30;7.84;77.10
67641;SHT31;54434;50.096;20.082;2023-04-15T04:34:07;7.86;77.09
67641;SHT31;54434;50.096;20.082;2023-04-15T04:36:43;7.89;77.13
67641;SHT31;54434;50.096;20.082;2023-04-15T04:39:19;7.92;77.23
67641;SHT31;54434;50.096;20.082;2023-04-15T04:41:55;7.93;77.40
67641;SHT31;54434;50.096;20.082;2023-04-15T04:44:33;7.94;77.42
67641;SHT31;54434;50.096;20.082;2023-04-15T04:47:09;7.95;77.44
67641;SHT31;54434;50.096;20.082;2023-04-15T04:49:45;7.96;77.47
67641;SHT31;54434;50.096;20.082;2023-04-15T04:52:22;7.99;77.49
67641;SHT31;54434;50.096;20.082;2023-04-15T04:54:58;8.02;77.50
67641;SHT31;54434;50.096;20.082;2023-04-15T04:57:35;8.06;77.48
67641;SHT31;54434;50.096;20.082;2023-04-15T05:00:13;8.10;77.40
67641;SHT31;54434;50.096;20.082;2023-04-15T05:02:49;8.16;77.17
67641;SHT31;54434;50.096;20.082;2023-04-15T05:05:26;8.24;76.78
67641;SHT31;54434;50.096;20.082;2023-04-15T05:08:03;8.34;76.76
67641;SHT31;54434;50.096;20.082;2023-04-15T05:10:40;8.44;76.89
67641;SHT31;54434;50.096;20.082;2023-04-15T05:13:16;8.58;76.81
67641;SHT31;54434;50.096;20.082;2023-04-15T05:15:53;8.75;76.82
67641;SHT31;54434;50.096;20.082;2023-04-15T05:18:30;8.94;76.59
67641;SHT31;54434;50.096;20.082;2023-04-15T05:21:07;9.11;76.31
67641;SHT31;54434;50.096;20.082;2023-04-15T05:23:44;9.23;75.98
67641;SHT31;54434;50.096;20.082;2023-04-15T05:26:21;9.38;75.67
67641;SHT31;54434;50.096;20.082;2023-04-15T05:28:58;9.58;75.68
67641;SHT31;54434;50.096;20.082;2023-04-15T05:31:35;10.01;75.23
67641;SHT31;54434;50.096;20.082;2023-04-15T05:34:12;10.80;74.06
67641;SHT31;54434;50.096;20.082;2023-04-15T05:36:48;11.77;71.62
67641;SHT31;54434;50.096;20.082;2023-04-15T05:39:25;12.59;68.98
67641;SHT31;54434;50.096;20.082;2023-04-15T05:42:03;13.01;67.24
67641;SHT31;54434;50.096;20.082;2023-04-15T05:44:39;13.21;66.43
67641;SHT31;54434;50.096;20.082;2023-04-15T05:47:16;13.44;65.57
67641;SHT31;54434;50.096;20.082;2023-04-15T05:49:53;13.57;63.95
67641;SHT31;54434;50.096;20.082;2023-04-15T05:52:29;13.65;63.92
67641;SHT31;54434;50.096;20.082;2023-04-15T05:55:07;13.88;63.41
67641;SHT31;54434;50.096;20.082;2023-04-15T05:57:45;14.08;62.41
67641;SHT31;54434;50.096;20.082;2023-04-15T06:00:21;14.22;62.57
67641;SHT31;54434;50.096;20.082;2023-04-15T06:02:58;14.35;62.28
67641;SHT31;54434;50.096;20.082;2023-04-15T06:05:37;14.52;61.08
67641;SHT31;54434;50.096;20.082;2023-04-15T06:08:16;14.59;60.51
67641;SHT31;54434;50.096;20.082;2023-04-15T06:10:53;14.56;60.32
67641;SHT31;54434;50.096;20.082;2023-04-15T06:13:33;14.43;60.04
67641;SHT31;54434;50.096;20.082;2023-04-15T06:16:10;14.32;59.79
67641;SHT31;54434;50.096;20.082;2023-04-15T06:18:47;14.23;59.81
67641;SHT31;54434;50.096;20.082;2023-04-15T06:21:23;14.04;60.31
67641;SHT31;54434;50.096;20.082;2023-04-15T06:24:02;13.92;60.01
67641;SHT31;54434;50.096;20.082;2023-04-15T06:26:39;13.81;59.80
67641;SHT31;54434;50.096;20.082;2023-04-15T06:29:18;13.72;60.17
67641;SHT31;54434;50.096;20.082;2023-04-15T06:31:54;13.69;59.55
67641;SHT31;54434;50.096;20.082;2023-04-15T06:34:31;13.70;59.48
67641;SHT31;54434;50.096;20.082;2023-04-15T06:37:07;13.65;59.76
67641;SHT31;54434;50.096;20.082;2023-04-15T06:39:46;13.56;59.80
67641;SHT31;54434;50.096;20.082;2023-04-15T06:42:23;13.48;60.32
67641;SHT31;54434;50.096;20.082;2023-04-15T06:45:00;13.36;61.11
67641;SHT31;54434;50.096;20.082;2023-04-15T06:47:39;13.26;61.39
67641;SHT31;54434;50.096;20.082;2023-04-15T06:50:16;13.14;61.83
67641;SHT31;54434;50.096;20.082;2023-04-15T06:52:52;13.02;62.44
67641;SHT31;54434;50.096;20.082;2023-04-15T06:55:32;12.98;62.70
67641;SHT31;54434;50.096;20.082;2023-04-15T06:58:08;13.01;62.61
67641;SHT31;54434;50.096;20.082;2023-04-15T07:00:44;13.02;62.77
67641;SHT31;54434;50.096;20.082;2023-04-15T07:03:21;13.10;63.23
67641;SHT31;54434;50.096;20.082;2023-04-15T07:05:58;13.14;63.00
67641;SHT31;54434;50.096;20.082;2023-04-15T07:08:37;13.23;63.66
67641;SHT31;54434;50.096;20.082;2023-04-15T07:11:14;13.38;63.10
67641;SHT31;54434;50.096;20.082;2023-04-15T07:13:56;13.49;62.50
67641;SHT31;54434;50.096;20.082;2023-04-15T07:16:34;13.61;62.32
67641;SHT31;54434;50.096;20.082;2023-04-15T07:19:10;13.70;62.13
67641;SHT31;54434;50.096;20.082;2023-04-15T07:21:47;13.83;61.93
67641;SHT31;54434;50.096;20.082;2023-04-15T07:24:23;13.88;60.96
67641;SHT31;54434;50.096;20.082;2023-04-15T07:26:59;13.97;61.05
67641;SHT31;54434;50.096;20.082;2023-04-15T07:29:36;13.99;61.68
67641;SHT31;54434;50.096;20.082;2023-04-15T07:32:12;13.94;61.40
67641;SHT31;54434;50.096;20.082;2023-04-15T07:34:49;13.93;60.63
67641;SHT31;54434;50.096;20.082;2023-04-15T07:37:25;13.87;60.43
67641;SHT31;54434;50.096;20.082;2023-04-15T07:40:02;13.74;60.87
67641;SHT31;54434;50.096;20.082;2023-04-15T07:42:41;13.82;61.53
67641;SHT31;54434;50.096;20.082;2023-04-15T07:45:20;13.90;61.55
67641;SHT31;54434;50.096;20.082;2023-04-15T07:47:56;14.06;61.48
67641;SHT31;54434;50.096;20.082;2023-04-15T07:50:33;14.13;60.54
67641;SHT31;54434;50.096;20.082;2023-04-15T07:53:09;14.20;60.69
67641;SHT31;54434;50.096;20.082;2023-04-15T07:55:46;14.41;60.80
67641;SHT31;54434;50.096;20.082;2023-04-15T07:58:22;14.57;60.52
67641;SHT31;54434;50.096;20.082;2023-04-15T08:00:59;14.66;60.03
67641;SHT31;54434;50.096;20.082;2023-04-15T08:03:36;14.73;59.26
67641;SHT31;54434;50.096;20.082;2023-04-15T08:08:43;15.27;58.04
67641;SHT31;54434;50.096;20.082;2023-04-15T08:11:21;15.59;57.13
67641;SHT31;54434;50.096;20.082;2023-04-15T08:13:58;15.65;56.65
67641;SHT31;54434;50.096;20.082;2023-04-15T08:16:35;15.95;55.79
67641;SHT31;54434;50.096;20.082;2023-04-15T08:19:12;16.05;54.75
67641;SHT31;54434;50.096;20.082;2023-04-15T08:21:48;16.12;54.28
67641;SHT31;54434;50.096;20.082;2023-04-15T08:24:24;16.18;53.80
67641;SHT31;54434;50.096;20.082;2023-04-15T08:27:02;16.29;54.13
67641;SHT31;54434;50.096;20.082;2023-04-15T08:29:39;16.47;53.45
67641;SHT31;54434;50.096;20.082;2023-04-15T08:32:16;16.52;52.54
67641;SHT31;54434;50.096;20.082;2023-04-15T08:34:53;16.66;52.22
67641;SHT31;54434;50.096;20.082;2023-04-15T08:37:30;16.85;52.51
67641;SHT31;54434;50.096;20.082;2023-04-15T08:40:09;17.04;52.20
67641;SHT31;54434;50.096;20.082;2023-04-15T08:42:48;17.11;51.47
67641;SHT31;54434;50.096;20.082;2023-04-15T08:45:32;17.28;52.40
67641;SHT31;54434;50.096;20.082;2023-04-15T08:48:12;17.42;52.02
67641;SHT31;54434;50.096;20.082;2023-04-15T08:50:50;17.46;50.05
67641;SHT31;54434;50.096;20.082;2023-04-15T08:53:29;17.43;50.05
67641;SHT31;54434;50.096;20.082;2023-04-15T08:56:07;17.71;50.97
67641;SHT31;54434;50.096;20.082;2023-04-15T08:58:46;17.86;48.91
67641;SHT31;54434;50.096;20.082;2023-04-15T09:01:24;17.81;48.31
67641;SHT31;54434;50.096;20.082;2023-04-15T09:04:01;17.92;48.37
67641;SHT31;54434;50.096;20.082;2023-04-15T09:06:41;18.04;48.10
67641;SHT31;54434;50.096;20.082;2023-04-15T09:09:17;18.06;47.68
67641;SHT31;54434;50.096;20.082;2023-04-15T09:11:54;18.10;48.02
67641;SHT31;54434;50.096;20.082;2023-04-15T09:14:30;18.15;47.80
67641;SHT31;54434;50.096;20.082;2023-04-15T09:17:09;18.05;45.55
67641;SHT31;54434;50.096;20.082;2023-04-15T09:19:50;17.98;45.68
67641;SHT31;54434;50.096;20.082;2023-04-15T09:22:48;17.93;44.54
67641;SHT31;54434;50.096;20.082;2023-04-15T09:25:29;17.74;45.50
67641;SHT31;54434;50.096;20.082;2023-04-15T09:28:06;17.77;46.25
67641;SHT31;54434;50.096;20.082;2023-04-15T09:30:44;17.89;46.68
67641;SHT31;54434;50.096;20.082;2023-04-15T09:33:23;17.89;45.14
67641;SHT31;54434;50.096;20.082;2023-04-15T09:36:03;17.91;45.33
67641;SHT31;54434;50.096;20.082;2023-04-15T09:38:46;17.97;44.82
67641;SHT31;54434;50.096;20.082;2023-04-15T09:41:31;17.96;43.93
67641;SHT31;54434;50.096;20.082;2023-04-15T09:44:07;17.83;43.55
67641;SHT31;54434;50.096;20.082;2023-04-15T09:46:58;17.53;43.68
67641;SHT31;54434;50.096;20.082;2023-04-15T09:49:34;17.35;44.56
67641;SHT31;54434;50.096;20.082;2023-04-15T09:52:27;17.31;44.47
67641;SHT31;54434;50.096;20.082;2023-04-15T09:55:08;17.20;45.18
67641;SHT31;54434;50.096;20.082;2023-04-15T09:57:46;17.16;44.97
67641;SHT31;54434;50.096;20.082;2023-04-15T10:00:23;17.13;45.06
67641;SHT31;54434;50.096;20.082;2023-04-15T10:03:01;17.10;44.04
67641;SHT31;54434;50.096;20.082;2023-04-15T10:05:39;17.05;44.50
67641;SHT31;54434;50.096;20.082;2023-04-15T10:08:16;17.10;44.36
67641;SHT31;54434;50.096;20.082;2023-04-15T10:10:55;17.14;45.33
67641;SHT31;54434;50.096;20.082;2023-04-15T10:13:33;17.19;45.39
67641;SHT31;54434;50.096;20.082;2023-04-15T10:16:13;17.15;44.81
67641;SHT31;54434;50.096;20.082;2023-04-15T10:18:54;17.02;43.90
67641;SHT31;54434;50.096;20.082;2023-04-15T10:21:33;16.99;44.76
67641;SHT31;54434;50.096;20.082;2023-04-15T10:24:09;17.05;45.14
67641;SHT31;54434;50.096;20.082;2023-04-15T10:26:47;17.26;45.55
67641;SHT31;54434;50.096;20.082;2023-04-15T10:29:25;17.34;45.20
67641;SHT31;54434;50.096;20.082;2023-04-15T10:32:01;17.27;45.67
67641;SHT31;54434;50.096;20.082;2023-04-15T10:34:39;17.22;44.92
67641;SHT31;54434;50.096;20.082;2023-04-15T10:37:21;17.08;44.80
67641;SHT31;54434;50.096;20.082;2023-04-15T10:40:26;16.98;45.37
67641;SHT31;54434;50.096;20.082;2023-04-15T10:43:05;16.95;45.58
67641;SHT31;54434;50.096;20.082;2023-04-15T10:45:58;16.94;44.82
67641;SHT31;54434;50.096;20.082;2023-04-15T10:48:40;17.06;44.86
67641;SHT31;54434;50.096;20.082;2023-04-15T10:51:29;17.18;45.53
67641;SHT31;54434;50.096;20.082;2023-04-15T10:54:07;17.24;44.40
67641;SHT31;54434;50.096;20.082;2023-04-15T10:57:06;17.10;43.63
67641;SHT31;54434;50.096;20.082;2023-04-15T11:00:10;16.98;43.93
67641;SHT31;54434;50.096;20.082;2023-04-15T11:02:52;16.83;44.92
67641;SHT31;54434;50.096;20.082;2023-04-15T11:05:50;16.63;44.12
67641;SHT31;54434;50.096;20.082;2023-04-15T11:08:53;16.55;44.86
67641;SHT31;54434;50.096;20.082;2023-04-15T11:12:06;16.58;45.77
67641;SHT31;54434;50.096;20.082;2023-04-15T11:14:45;16.61;45.69
67641;SHT31;54434;50.096;20.082;2023-04-15T11:17:28;16.65;45.85
67641;SHT31;54434;50.096;20.082;2023-04-15T11:20:07;16.60;44.83
67641;SHT31;54434;50.096;20.082;2023-04-15T11:22:52;16.46;45.57
67641;SHT31;54434;50.096;20.082;2023-04-15T11:25:46;16.45;45.41
67641;SHT31;54434;50.096;20.082;2023-04-15T11:28:25;16.40;45.13
67641;SHT31;54434;50.096;20.082;2023-04-15T11:31:08;16.31;44.89
67641;SHT31;54434;50.096;20.082;2023-04-15T11:33:54;16.23;45.22
67641;SHT31;54434;50.096;20.082;2023-04-15T11:36:33;16.24;45.82
67641;SHT31;54434;50.096;20.082;2023-04-15T11:39:09;16.30;46.37
67641;SHT31;54434;50.096;20.082;2023-04-15T11:41:47;16.26;47.33
67641;SHT31;54434;50.096;20.082;2023-04-15T11:44:23;16.24;45.80
67641;SHT31;54434;50.096;20.082;2023-04-15T11:47:00;16.18;45.59
67641;SHT31;54434;50.096;20.082;2023-04-15T11:52:55;15.95;46.36
67641;SHT31;54434;50.096;20.082;2023-04-15T11:55:45;15.88;46.86
67641;SHT31;54434;50.096;20.082;2023-04-15T11:58:24;15.79;46.65
67641;SHT31;54434;50.096;20.082;2023-04-15T12:01:01;15.72;46.73
67641;SHT31;54434;50.096;20.082;2023-04-15T12:03:40;15.67;47.44
67641;SHT31;54434;50.096;20.082;2023-04-15T12:06:19;15.60;46.16
67641;SHT31;54434;50.096;20.082;2023-04-15T12:09:06;15.56;47.24
67641;SHT31;54434;50.096;20.082;2023-04-15T12:11:45;15.57;48.90
67641;SHT31;54434;50.096;20.082;2023-04-15T12:14:25;15.54;48.24
67641;SHT31;54434;50.096;20.082;2023-04-15T12:17:05;15.52;47.89
67641;SHT31;54434;50.096;20.082;2023-04-15T12:19:44;15.55;47.36
67641;SHT31;54434;50.096;20.082;2023-04-15T12:22:21;15.60;47.18
67641;SHT31;54434;50.096;20.082;2023-04-15T12:24:59;15.72;47.79
67641;SHT31;54434;50.096;20.082;2023-04-15T12:27:36;15.81;46.54
67641;SHT31;54434;50.096;20.082;2023-04-15T12:30:14;15.88;46.49
67641;SHT31;54434;50.096;20.082;2023-04-15T12:32:52;15.90;46.20
67641;SHT31;54434;50.096;20.082;2023-04-15T12:35:30;15.97;46.82
67641;SHT31;54434;50.096;20.082;2023-04-15T12:38:07;16.06;46.41
67641;SHT31;54434;50.096;20.082;2023-04-15T12:40:43;16.14;45.88
67641;SHT31;54434;50.096;20.082;2023-04-15T12:43:22;16.22;46.31
67641;SHT31;54434;50.096;20.082;2023-04-15T12:45:59;16.29;47.24
67641;SHT31;54434;50.096;20.082;2023-04-15T12:48:37;16.34;46.95
67641;SHT31;54434;50.096;20.082;2023-04-15T12:51:14;16.33;46.50
67641;SHT31;54434;50.096;20.082;2023-04-15T12:53:52;16.25;46.21
67641;SHT31;54434;50.096;20.082;2023-04-15T12:56:29;16.13;47.42
67641;SHT31;54434;50.096;20.082;2023-04-15T12:59:05;16.10;47.31
67641;SHT31;54434;50.096;20.082;2023-04-15T13:01:41;16.02;46.98
67641;SHT31;54434;50.096;20.082;2023-04-15T13:04:21;15.91;46.81
67641;SHT31;54434;50.096;20.082;2023-04-15T13:07:02;15.85;46.93
67641;SHT31;54434;50.096;20.082;2023-04-15T13:09:38;15.77;47.29
67641;SHT31;54434;50.096;20.082;2023-04-15T13:12:15;15.75;48.57
67641;SHT31;54434;50.096;20.082;2023-04-15T13:14:53;15.77;48.40
67641;SHT31;54434;50.096;20.082;2023-04-15T13:17:29;15.69;47.49
67641;SHT31;54434;50.096;20.082;2023-04-15T13:20:07;15.56;47.47
67641;SHT31;54434;50.096;20.082;2023-04-15T13:22:46;15.45;48.30
67641;SHT31;54434;50.096;20.082;2023-04-15T13:25:23;15.36;47.92
67641;SHT31;54434;50.096;20.082;2023-04-15T13:28:00;15.29;48.42
67641;SHT31;54434;50.096;20.082;2023-04-15T13:30:37;15.27;48.32
67641;SHT31;54434;50.096;20.082;2023-04-15T13:33:17;15.28;48.92
67641;SHT31;54434;50.096;20.082;2023-04-15T13:35:57;15.33;49.01
67641;SHT31;54434;50.096;20.082;2023-04-15T13:38:34;15.38;48.96
67641;SHT31;54434;50.096;20.082;2023-04-15T13:41:11;15.46;47.82
67641;SHT31;54434;50.096;20.082;2023-04-15T13:43:48;15.55;47.46
67641;SHT31;54434;50.096;20.082;2023-04-15T13:46:24;15.64;46.95
67641;SHT31;54434;50.096;20.082;2023-04-15T13:49:00;15.74;46.76
67641;SHT31;54434;50.096;20.082;2023-04-15T13:51:37;15.86;46.60
67641;SHT31;54434;50.096;20.082;2023-04-15T13:54:13;15.98;46.62
67641;SHT31;54434;50.096;20.082;2023-04-15T13:56:49;16.09;47.09
67641;SHT31;54434;50.096;20.082;2023-04-15T13:59:27;16.18;45.49
67641;SHT31;54434;50.096;20.082;2023-04-15T14:02:05;16.28;46.09
67641;SHT31;54434;50.096;20.082;2023-04-15T14:04:42;16.39;45.49
67641;SHT31;54434;50.096;20.082;2023-04-15T14:07:18;16.48;45.24
67641;SHT31;54434;50.096;20.082;2023-04-15T14:09:55;16.60;45.84
67641;SHT31;54434;50.096;20.082;2023-04-15T14:12:31;16.70;44.33
67641;SHT31;54434;50.096;20.082;2023-04-15T14:15:09;16.73;42.73
67641;SHT31;54434;50.096;20.082;2023-04-15T14:17:46;16.67;42.79
67641;SHT31;54434;50.096;20.082;2023-04-15T14:20:27;16.54;43.44
67641;SHT31;54434;50.096;20.082;2023-04-15T14:23:03;16.47;45.36
67641;SHT31;54434;50.096;20.082;2023-04-15T14:25:39;16.31;47.61
67641;SHT31;54434;50.096;20.082;2023-04-15T14:28:18;16.11;48.14
67641;SHT31;54434;50.096;20.082;2023-04-15T14:30:56;15.86;48.20
67641;SHT31;54434;50.096;20.082;2023-04-15T14:33:32;15.66;48.29
67641;SHT31;54434;50.096;20.082;2023-04-15T14:36:09;15.50;49.11
67641;SHT31;54434;50.096;20.082;2023-04-15T14:38:46;15.41;48.95
67641;SHT31;54434;50.096;20.082;2023-04-15T14:41:24;15.27;48.17
67641;SHT31;54434;50.096;20.082;2023-04-15T14:44:04;15.17;48.44
67641;SHT31;54434;50.096;20.082;2023-04-15T14:46:42;15.08;48.90
67641;SHT31;54434;50.096;20.082;2023-04-15T14:49:18;15.02;49.16
67641;SHT31;54434;50.096;20.082;2023-04-15T14:51:54;15.00;49.61
67641;SHT31;54434;50.096;20.082;2023-04-15T14:54:31;15.04;50.47
67641;SHT31;54434;50.096;20.082;2023-04-15T14:57:07;15.11;51.10
67641;SHT31;54434;50.096;20.082;2023-04-15T14:59:44;15.21;51.55
67641;SHT31;54434;50.096;20.082;2023-04-15T15:02:20;15.25;52.03
67641;SHT31;54434;50.096;20.082;2023-04-15T15:05:10;15.35;51.34
67641;SHT31;54434;50.096;20.082;2023-04-15T15:07:47;15.40;51.58
67641;SHT31;54434;50.096;20.082;2023-04-15T15:10:23;15.41;51.70
67641;SHT31;54434;50.096;20.082;2023-04-15T15:13:19;15.40;51.86
67641;SHT31;54434;50.096;20.082;2023-04-15T15:15:56;15.38;51.44
67641;SHT31;54434;50.096;20.082;2023-04-15T15:18:32;15.32;51.19
67641;SHT31;54434;50.096;20.082;2023-04-15T15:21:11;15.27;50.66
67641;SHT31;54434;50.096;20.082;2023-04-15T15:23:47;15.25;51.10
67641;SHT31;54434;50.096;20.082;2023-04-15T15:26:24;15.23;51.65
67641;SHT31;54434;50.096;20.082;2023-04-15T15:29:04;15.25;52.19
67641;SHT31;54434;50.096;20.082;2023-04-15T15:31:41;15.25;52.27
67641;SHT31;54434;50.096;20.082;2023-04-15T15:34:20;15.27;51.67
67641;SHT31;54434;50.096;20.082;2023-04-15T15:37:00;15.30;51.13
67641;SHT31;54434;50.096;20.082;2023-04-15T15:39:36;15.36;51.18
67641;SHT31;54434;50.096;20.082;2023-04-15T15:42:13;15.41;50.79
67641;SHT31;54434;50.096;20.082;2023-04-15T15:44:50;15.47;50.91
67641;SHT31;54434;50.096;20.082;2023-04-15T15:47:27;15.50;50.53
67641;SHT31;54434;50.096;20.082;2023-04-15T15:50:04;15.53;50.30
67641;SHT31;54434;50.096;20.082;2023-04-15T15:52:41;15.53;50.52
67641;SHT31;54434;50.096;20.082;2023-04-15T15:55:18;15.53;48.45
67641;SHT31;54434;50.096;20.082;2023-04-15T15:57:56;15.49;48.68
67641;SHT31;54434;50.096;20.082;2023-04-15T16:00:32;15.46;49.95
67641;SHT31;54434;50.096;20.082;2023-04-15T16:03:09;15.38;50.43
67641;SHT31;54434;50.096;20.082;2023-04-15T16:05:46;15.33;50.53
67641;SHT31;54434;50.096;20.082;2023-04-15T16:08:23;15.24;49.70
67641;SHT31;54434;50.096;20.082;2023-04-15T16:10:59;15.14;49.82
67641;SHT31;54434;50.096;20.082;2023-04-15T16:13:36;15.02;49.88
67641;SHT31;54434;50.096;20.082;2023-04-15T16:16:12;14.91;50.61
67641;SHT31;54434;50.096;20.082;2023-04-15T16:18:51;14.81;51.02
67641;SHT31;54434;50.096;20.082;2023-04-15T16:21:27;14.71;51.80
67641;SHT31;54434;50.096;20.082;2023-04-15T16:24:04;14.64;52.38
67641;SHT31;54434;50.096;20.082;2023-04-15T16:26:40;14.58;52.72
67641;SHT31;54434;50.096;20.082;2023-04-15T16:29:17;14.52;52.91
67641;SHT31;54434;50.096;20.082;2023-04-15T16:31:53;14.45;53.32
67641;SHT31;54434;50.096;20.082;2023-04-15T16:34:30;14.39;53.50